Aérodrome :
LOGIN :

S'inscrire | Disclaimer

   EN    FR    IT 

 










Légende :    VFR   VFR Marginal   IFR   IFR Intensif   IFR Très Intensif
Visi : 
Plafond : 
>= 8 km
>= 3000ft
5 à 8 km
1000 à 3000 ft
1500m à 5 km
500 à 1000 ft
800 à 1500m
200 à 500 ft
< 800m
< 200 ft
Symboles :   Orages  Brouillard  Fortes neiges  Fortes précipitations  Vent > 20 kt
SIGMETs :   Divers  Orages  Givrage  Turbulence  Onde Orograph.  Cendres Volcan.







- Altitude de l'aérodrome : 863 ft
- Code IATA : ZAZ


LEZG - Zaragoza Aragon

DERNIER METAR :
  • 181730Z 16004KT 9000 -RA SCT045 BKN055 17/15 Q1013

METARs EXPIRÉS :
  • 181700Z 16005KT 9000 -RA SCT040 BKN050 18/15 Q1012
  • 181630Z 07007KT 8000 -RA SCT040 OVC050 18/15 Q1012
  • 181600Z 33003KT 290V010 9999 OVC050 20/13 Q1011
  • 181530Z 31007KT 9999 BKN055 20/13 Q1011
  • 181500Z 30007KT 9999 BKN052 21/11 Q1011
  • 181430Z 30008KT 9999 FEW060 22/11 Q1011

TAF TAF LEZG
Valide du 18 à 18h jusqu'au 19 à 18h UTC


181700Z 1818/1918 30006KT 9999 FEW050 TX22/1913Z TN14/1906Z
TEMPO 1818/1820 09008KT
PROB40
TEMPO 1818/1918 4000 SHRA SCT020 SCT025TCU
Pas de NOTAMs connus pour ce terrain.
5 SIGMETs publiés pour la FIR Madrid (LECM) :
 
Orages noyés dans la masse
LECM SIGMET 15 VALID 181630/181800 LEVA
LECM MADRID FIR/UIR EMBD TS OBS AT 1630Z WI N3940 W007 - N3940 W00350 - N3840 W00330 - N3820 W007 - N3940 W007 TOP FL320 MOV WSW 20KT NC=
Annulation du SIGMET 13
LECM SIGMET 14 VALID 181628/181800 LEVA
LECM MADRID FIR/UIR CNL SIGMET 13 VALID 181619/182800=
SIGMET 13  ANNULÉ :
Orages noyés dans la masse
LECM SIGMET 13 VALID 181619/182800 LEVA
LECM MADRID FIR/UIR EMBD TS OBS AT 1619Z WI N3930 W007 - N3950 W00310 - N3830 W003 - N3810 W007 - N3930 W007 TOP FL320 MOV ESE 20KT NC=
Orages noyés dans la masse
LECM SIGMET 13 VALID 181619/181800 LEVA
LECM MADRID FIR/UIR EMBD TS OBS AT 1619Z WI N3930 W007 - N3950 W00310 - N3830 W003 - N3810 W007 - N3930 W007 TOP FL320 MOV ESE 20KT NC=
Turbulence forte
LECM SIGMET 12 VALID 181500/181900 LEVA
LECM MADRID FIR/UIR SEV TURB OBS AT 1452Z S OF LINE N3630 W00720 - N3710 W00150 FL200/320 MOV E 20KT NC=



MET'MAP, la Météo Aéronautique d'un coup d'oeil ! - Copyright ORBIFLY Décembre 2007 - Disclaimer

ORBIFLY MET'MAP TEAM :

Programmation & Développement : Alexandra Zaïnal
Conception & Développement : Baudouin d'Aumeries
Co-Programmation & Développement : Marc-Olivier Méhu
Soutien technique & logistique : Manuel Goepfert

Contact : metmap@orbifly.com




SOURCES & CREDITS :

   NOAA